Islamorada, Florida
Current Conditions -  °F | °C
As of 6:53 AM on Saturday 25 Oct 2014 (Local Time) from KMTH Reporting Station
Clear Clear  
Wind Chill: 73°   Ceiling: Unl
Heat Index: 73°   Visibility: 10mi
Dew Point: 66°   Wind: 14mph
Humidity: 79%   Direction: 10°N
Pressure: 29.88"   Gusts: 23mph
Location:  24.93°N, 80.63°W
Report Text: KMTH 251053Z AUTO 01012G20KT 10SM CLR 23/19 A2988 RMK AO2 SLP116 T02280189 $
Loading
Personal Weather Stations






























Interactive Weather Map
Tropical Storm Tracking
New forecast layout! Learn more

10-Day Weather Forecast

Advertisements
Track Severe Weather on mobile